Pagina principală
METAR-TAF:

METAR-TAF

Aeroporturi :

Los Ángeles, Chile

Latitudine: 37-24-07S, longitudine: 072-25-32W, elevație: 114 m

Observații meteo curente

Raportul a fost făcut în urmă cu 4 ore și 49 de minute, la 23:00 UTC
Vânt 1 kt de la Nord-est
Temperatură 18°C
Umiditate 68%
Presiune 1013 hPa
Vizibilitate de 10 km sau mai mult
nu există nori sub 1.500 m și nici cumulonimbus

METAR: SCGE 132300Z 05001KT CAVOK 18/12 Q1013

Ora: 23:49 (03:49 UTC)


TAF: lipsă

Observații și prognoze meteo pentru peste 4.000 de aeroporturi (rapoarte METAR și TAF).

Stațiile disponibile sunt reprezentate pe hartă prin puncte galbene și roșii.

Țineți indicatorul mouse-ului pe punctul dorit pentru a vedea denumirea stației.

Apoi, faceți clic pentru a vedea observațiile și prognozele meteorologice.

Pentru a schimba harta: Pentru mărire, faceți clic pe butoanele verzi cu cruce neagră; pentru micșorare, pe butonul verde cu o liniuță; pentru hărți învecinate, pe săgețile verzi.


METAR-TAF: